createdAt,value
2019-02-05T00:00:37.074Z,96390.52
2019-02-05T00:03:05.443Z,96377.91
2019-02-05T00:05:32.868Z,96383.86
2019-02-05T00:08:00.225Z,96381.94
2019-02-05T00:10:27.624Z,96388.00
2019-02-05T00:12:55.105Z,96388.00
2019-02-05T00:15:22.484Z,96383.84
2019-02-05T00:17:49.965Z,96383.84
2019-02-05T00:20:18.341Z,96382.17
2019-02-05T00:22:45.727Z,96385.98
2019-02-05T00:25:13.253Z,96388.82
2019-02-05T00:27:40.606Z,96388.82
2019-02-05T00:30:08.154Z,96391.44
2019-02-05T00:32:35.546Z,96391.44
2019-02-05T00:35:04.005Z,96392.23
2019-02-05T00:37:31.366Z,96388.48
2019-02-05T00:39:58.730Z,96387.81
2019-02-05T00:42:26.221Z,96387.81
2019-02-05T00:44:53.633Z,96390.20
2019-02-05T00:47:21.013Z,96387.90
2019-02-05T00:49:48.382Z,96395.66
2019-02-05T00:52:15.865Z,96400.19
2019-02-05T00:54:43.262Z,96400.19
2019-02-05T00:57:10.608Z,96385.56
2019-02-05T00:59:37.972Z,96385.70
2019-02-05T01:02:05.335Z,96384.93
2019-02-05T01:04:32.749Z,96394.42
2019-02-05T01:07:00.115Z,96394.42
2019-02-05T01:09:27.615Z,96393.47
2019-02-05T01:11:55.000Z,96394.09
2019-02-05T01:14:22.380Z,96400.52
2019-02-05T01:16:49.753Z,96400.52
2019-02-05T01:19:17.145Z,96398.61
2019-02-05T01:21:44.565Z,96405.54
2019-02-05T01:24:11.993Z,96409.76
2019-02-05T01:26:39.471Z,96411.55
2019-02-05T01:29:06.805Z,96406.67
2019-02-05T01:31:34.185Z,96408.94
2019-02-05T01:34:01.565Z,96408.94
2019-02-05T01:36:28.973Z,96409.08
2019-02-05T01:38:56.354Z,96409.08
2019-02-05T01:41:23.765Z,96411.24
2019-02-05T01:43:51.215Z,96405.97
2019-02-05T01:46:18.594Z,96408.22
2019-02-05T01:48:45.989Z,96408.67
2019-02-05T01:51:13.385Z,96407.80
2019-02-05T01:53:40.793Z,96403.55
2019-02-05T01:56:08.187Z,96396.47
2019-02-05T01:58:35.533Z,96400.59
2019-02-05T02:01:04.729Z,96407.34
2019-02-05T02:03:32.245Z,96403.94
2019-02-05T02:05:59.635Z,96400.41
2019-02-05T02:08:26.985Z,96398.63
2019-02-05T02:10:54.370Z,96402.30
2019-02-05T02:13:22.339Z,96398.88
2019-02-05T02:15:49.854Z,96398.88
2019-02-05T02:18:17.547Z,96389.30
2019-02-05T02:20:44.945Z,96389.92
2019-02-05T02:23:12.328Z,96394.73
2019-02-05T02:25:39.716Z,96394.73
2019-02-05T02:28:07.106Z,96386.83
2019-02-05T02:30:36.816Z,96386.83
2019-02-05T02:33:05.210Z,96383.95
2019-02-05T02:35:32.670Z,96383.28
2019-02-05T02:38:00.487Z,96390.09
2019-02-05T02:40:27.909Z,96390.09
2019-02-05T02:42:55.293Z,96386.55
2019-02-05T02:45:22.646Z,96394.91
2019-02-05T02:47:50.191Z,96389.69
2019-02-05T02:50:17.620Z,96406.67
2019-02-05T02:52:45.305Z,96393.73
2019-02-05T02:55:12.785Z,96393.73
2019-02-05T02:57:40.988Z,96397.42
2019-02-05T03:00:11.225Z,96397.02
2019-02-05T03:02:38.735Z,96395.77
2019-02-05T03:05:08.813Z,96411.33
2019-02-05T03:07:36.172Z,96402.76
2019-02-05T03:10:05.875Z,96407.03
2019-02-05T03:12:33.667Z,96406.91
2019-02-05T03:15:01.091Z,96407.42
2019-02-05T03:17:28.470Z,96408.77
2019-02-05T03:19:56.205Z,96417.77
2019-02-05T03:22:23.615Z,96411.01
2019-02-05T03:24:50.985Z,96416.00
2019-02-05T03:27:18.617Z,96415.17
2019-02-05T03:29:46.027Z,96409.54
2019-02-05T03:32:13.510Z,96409.44
2019-02-05T03:34:41.433Z,96409.44
2019-02-05T03:37:08.886Z,96410.88
2019-02-05T03:39:36.273Z,96415.14
2019-02-05T03:42:03.653Z,96409.47
2019-02-05T03:44:31.026Z,96414.48
2019-02-05T03:46:58.519Z,96409.04
2019-02-05T03:49:26.280Z,96417.23
2019-02-05T03:52:11.366Z,96409.98
2019-02-05T03:55:14.784Z,96409.98
2019-02-05T03:58:21.061Z,96409.56
2019-02-05T04:01:30.901Z,96410.84
2019-02-05T04:04:25.874Z,96414.67
2019-02-05T04:07:28.369Z,96409.94
2019-02-05T04:10:29.789Z,96411.18
2019-02-05T04:13:37.685Z,96420.30
2019-02-05T04:16:54.561Z,96425.41
2019-02-05T04:20:10.714Z,96422.81
2019-02-05T04:23:35.094Z,96418.53
2019-02-05T04:26:34.638Z,96425.81
2019-02-05T04:30:02.093Z,96426.83
2019-02-05T04:33:11.379Z,96425.50
2019-02-05T04:36:19.881Z,96414.66
2019-02-05T04:39:23.404Z,96424.10
2019-02-05T04:42:26.992Z,96426.66
2019-02-05T04:45:34.159Z,96426.66
2019-02-05T04:49:00.001Z,96431.39
2019-02-05T04:51:48.225Z,96415.20
2019-02-05T04:54:59.291Z,96426.25
2019-02-05T04:58:01.301Z,96423.76
2019-02-05T05:01:08.796Z,96427.12
2019-02-05T05:04:17.885Z,96429.34
2019-02-05T05:07:20.061Z,96422.88
2019-02-05T05:10:04.264Z,96430.55
2019-02-05T05:12:31.747Z,96434.77
2019-02-05T05:14:59.883Z,96441.67
2019-02-05T05:17:27.334Z,96441.25
2019-02-05T05:19:54.826Z,96439.55
2019-02-05T05:22:22.310Z,96450.69
2019-02-05T05:24:49.685Z,96450.63
2019-02-05T05:27:19.365Z,96448.13
2019-02-05T05:29:46.985Z,96440.02
2019-02-05T05:32:14.445Z,96444.68
2019-02-05T05:34:41.804Z,96449.40
2019-02-05T05:37:08.005Z,96445.14
2019-02-05T05:39:35.384Z,96453.64
2019-02-05T05:42:02.885Z,96448.95
2019-02-05T05:44:30.265Z,96447.67
2019-02-05T05:46:57.661Z,96447.67
2019-02-05T05:49:25.265Z,96447.67
2019-02-05T05:51:52.715Z,96454.46
2019-02-05T05:54:20.105Z,96454.94
2019-02-05T05:56:47.493Z,96455.34
2019-02-05T05:59:14.845Z,96460.43
2019-02-05T06:01:42.210Z,96460.04
2019-02-05T06:04:09.600Z,96460.88
2019-02-05T06:06:36.949Z,96461.34
2019-02-05T06:09:07.193Z,96465.58
2019-02-05T06:11:34.590Z,96464.30
2019-02-05T06:14:01.966Z,96460.04
2019-02-05T06:16:29.385Z,96460.05
2019-02-05T06:18:56.814Z,96461.31
2019-02-05T06:21:24.185Z,96459.61
2019-02-05T06:23:51.615Z,96459.61
2019-02-05T06:26:20.311Z,96459.61
2019-02-05T06:28:48.121Z,96465.14
2019-02-05T06:31:15.526Z,96463.36
2019-02-05T06:33:43.033Z,96471.50
2019-02-05T06:36:10.413Z,96474.94
2019-02-05T06:38:37.833Z,96474.13
2019-02-05T06:41:05.245Z,96471.98
2019-02-05T06:43:32.625Z,96476.66
2019-02-05T06:46:00.033Z,96478.80
2019-02-05T06:48:27.440Z,96481.34
2019-02-05T06:50:56.925Z,96485.19
2019-02-05T06:53:24.133Z,96484.77
2019-02-05T06:55:52.202Z,96486.05
2019-02-05T06:58:19.573Z,96479.21
2019-02-05T07:00:46.981Z,96474.95
2019-02-05T07:03:14.545Z,96477.95
2019-02-05T07:05:41.965Z,96475.41
2019-02-05T07:08:09.425Z,96479.20
2019-02-05T07:10:36.770Z,96487.30
2019-02-05T07:13:04.285Z,96486.84
2019-02-05T07:15:31.671Z,96490.31
2019-02-05T07:17:58.986Z,96491.59
2019-02-05T07:20:27.339Z,96497.55
2019-02-05T07:22:55.715Z,96497.13
2019-02-05T07:25:23.278Z,96503.97
2019-02-05T07:27:50.627Z,96500.94
2019-02-05T07:30:20.076Z,96495.80
2019-02-05T07:32:47.448Z,96498.80
2019-02-05T07:35:14.875Z,96495.77
2019-02-05T07:37:42.230Z,96490.27
2019-02-05T07:40:11.651Z,96498.67
2019-02-05T07:42:39.968Z,96493.34
2019-02-05T07:45:09.817Z,96484.89
2019-02-05T07:47:37.141Z,96488.61
2019-02-05T07:50:06.681Z,96491.16
2019-02-05T07:52:34.143Z,96491.44
2019-02-05T07:55:01.463Z,96491.40
2019-02-05T07:57:28.762Z,96488.63
2019-02-05T07:59:56.187Z,96492.02
2019-02-05T08:02:23.760Z,96488.70
2019-02-05T08:04:51.087Z,96491.93
2019-02-05T08:07:18.421Z,96498.27
2019-02-05T08:09:45.730Z,96486.63
2019-02-05T08:12:13.062Z,96500.88
2019-02-05T08:14:40.387Z,96498.07
2019-02-05T08:17:07.718Z,96497.19
2019-02-05T08:19:35.063Z,96497.19
2019-02-05T08:22:02.442Z,96505.48
2019-02-05T08:24:29.954Z,96504.63
2019-02-05T08:26:57.277Z,96508.02
2019-02-05T08:29:24.750Z,96509.30
2019-02-05T08:31:52.173Z,96507.22
2019-02-05T08:34:19.579Z,96507.22
2019-02-05T08:36:47.795Z,96508.09
2019-02-05T08:39:17.910Z,96520.02
2019-02-05T08:41:44.434Z,96513.97
2019-02-05T08:44:11.993Z,96519.94
2019-02-05T08:46:39.311Z,96519.94
2019-02-05T08:49:06.660Z,96516.93
2019-02-05T08:51:34.062Z,96524.70
2019-02-05T08:54:01.388Z,96522.91
2019-02-05T08:56:28.848Z,96528.94
2019-02-05T08:58:56.149Z,96531.41
2019-02-05T09:01:23.465Z,96530.61
2019-02-05T09:03:50.838Z,96525.08
2019-02-05T09:06:18.178Z,96520.38
2019-02-05T09:08:47.067Z,96519.48
2019-02-05T09:11:14.593Z,96516.48
2019-02-05T09:13:42.225Z,96516.48
2019-02-05T09:16:09.530Z,96525.11
2019-02-05T09:18:36.856Z,96521.28
2019-02-05T09:21:07.054Z,96521.28
2019-02-05T09:23:34.488Z,96522.38
2019-02-05T09:26:01.833Z,96513.05
2019-02-05T09:28:29.152Z,96511.26
2019-02-05T09:30:56.473Z,96511.26
2019-02-05T09:33:23.832Z,96522.66
2019-02-05T09:35:51.275Z,96519.30
2019-02-05T09:38:18.639Z,96521.95
2019-02-05T09:40:45.985Z,96520.93
2019-02-05T09:43:13.527Z,96520.93
2019-02-05T09:45:40.858Z,96513.19
2019-02-05T09:48:08.868Z,96517.14
2019-02-05T09:50:44.627Z,96515.75
2019-02-05T09:53:09.485Z,96522.62
2019-02-05T09:55:36.988Z,96529.41
2019-02-05T09:58:04.461Z,96531.14
2019-02-05T10:00:34.476Z,96537.98
2019-02-05T10:03:02.014Z,96537.98
2019-02-05T10:05:30.242Z,96531.53
2019-02-05T10:07:57.652Z,96524.45
2019-02-05T10:10:25.203Z,96524.45
2019-02-05T10:12:52.521Z,96520.99
2019-02-05T10:15:22.305Z,96519.73
2019-02-05T10:17:49.650Z,96527.93
2019-02-05T10:20:17.690Z,96516.67
2019-02-05T10:22:46.105Z,96518.17
2019-02-05T10:25:13.638Z,96518.17
2019-02-05T10:27:41.034Z,96509.80
2019-02-05T10:30:19.639Z,96504.13
2019-02-05T10:32:47.121Z,96504.13
2019-02-05T10:35:14.540Z,96509.33
2019-02-05T10:37:41.991Z,96502.73
2019-02-05T10:40:09.461Z,96508.50
2019-02-05T10:42:36.911Z,96508.50
2019-02-05T10:45:06.113Z,96502.89
2019-02-05T10:47:33.464Z,96508.03
2019-02-05T10:50:00.806Z,96500.89
2019-02-05T10:52:28.161Z,96500.89
2019-02-05T10:54:55.708Z,96499.73
2019-02-05T10:57:23.069Z,96500.36
2019-02-05T10:59:50.439Z,96495.33
2019-02-05T11:02:17.805Z,96488.53
2019-02-05T11:04:45.210Z,96490.02
2019-02-05T11:07:12.637Z,96474.03
2019-02-05T11:09:40.068Z,96474.03
2019-02-05T11:12:07.477Z,96471.59
2019-02-05T11:14:34.921Z,96473.69
2019-02-05T11:17:02.470Z,96474.53
2019-02-05T11:19:29.829Z,96474.53
2019-02-05T11:21:57.217Z,96478.78
2019-02-05T11:24:24.595Z,96478.66
2019-02-05T11:26:52.041Z,96472.30
2019-02-05T11:29:19.457Z,96476.93
2019-02-05T11:31:46.843Z,96469.02
2019-02-05T11:34:14.222Z,96472.02
2019-02-05T11:36:41.722Z,96467.52
2019-02-05T11:39:14.463Z,96463.87
2019-02-05T11:41:41.853Z,96462.13
2019-02-05T11:44:09.273Z,96453.87
2019-02-05T11:46:36.764Z,96453.73
2019-02-05T11:49:04.372Z,96451.92
2019-02-05T11:51:31.841Z,96458.64
2019-02-05T11:53:59.652Z,96453.94
2019-02-05T11:56:27.016Z,96448.02
2019-02-05T11:58:54.422Z,96448.14
2019-02-05T12:01:25.500Z,96441.40
2019-02-05T12:03:52.953Z,96443.48
2019-02-05T12:06:20.434Z,96437.73
2019-02-05T12:08:47.818Z,96435.72
2019-02-05T12:11:15.289Z,96432.64
2019-02-05T12:13:42.894Z,96427.42
2019-02-05T12:16:10.286Z,96415.72
2019-02-05T12:18:37.697Z,96424.61
2019-02-05T12:21:05.134Z,96422.95
2019-02-05T12:23:32.529Z,96416.55
2019-02-05T12:25:59.897Z,96418.55
2019-02-05T12:28:27.329Z,96408.44
2019-02-05T12:30:54.718Z,96408.53
2019-02-05T12:33:22.096Z,96402.63
2019-02-05T12:35:49.577Z,96392.97
2019-02-05T12:38:17.157Z,96403.59
2019-02-05T12:40:44.680Z,96393.38
2019-02-05T12:43:12.089Z,96400.20
2019-02-05T12:45:39.813Z,96393.81
2019-02-05T12:48:07.321Z,96377.02
2019-02-05T12:50:35.863Z,96388.95
2019-02-05T12:53:03.517Z,96381.13
2019-02-05T12:55:31.246Z,96377.88
2019-02-05T12:57:59.200Z,96377.88
2019-02-05T13:00:32.778Z,96377.25
2019-02-05T13:03:00.337Z,96376.14
2019-02-05T13:05:27.724Z,96371.50
2019-02-05T13:07:55.145Z,96372.16
2019-02-05T13:10:25.138Z,96374.16
2019-02-05T13:12:52.537Z,96375.40
2019-02-05T13:15:19.965Z,96372.56
2019-02-05T13:17:47.359Z,96374.25
2019-02-05T13:20:18.785Z,96366.34
2019-02-05T13:22:46.176Z,96364.59
2019-02-05T13:25:16.925Z,96365.97
2019-02-05T13:27:44.500Z,96363.87
2019-02-05T13:30:14.258Z,96361.37
2019-02-05T13:32:41.673Z,96369.39
2019-02-05T13:35:09.725Z,96366.67
2019-02-05T13:37:37.073Z,96365.94
2019-02-05T13:40:06.117Z,96368.41
2019-02-05T13:42:33.521Z,96369.73
2019-02-05T13:45:00.965Z,96363.55
2019-02-05T13:47:28.413Z,96376.66
2019-02-05T13:49:55.819Z,96369.23
2019-02-05T13:52:23.317Z,96366.70
2019-02-05T13:54:50.717Z,96359.45
2019-02-05T13:57:18.318Z,96358.28
2019-02-05T13:59:45.835Z,96355.34
2019-02-05T14:02:13.517Z,96355.91
2019-02-05T14:04:41.296Z,96350.73
2019-02-05T14:07:08.885Z,96353.00
2019-02-05T14:09:36.532Z,96355.12
2019-02-05T14:12:04.440Z,96353.64
2019-02-05T14:14:32.037Z,96352.43
2019-02-05T14:16:59.728Z,96345.84
2019-02-05T14:19:27.882Z,96346.55
2019-02-05T14:21:55.862Z,96352.61
2019-02-05T14:24:23.471Z,96346.72
2019-02-05T14:26:51.619Z,96350.91
2019-02-05T14:29:19.420Z,96345.71
2019-02-05T14:31:46.909Z,96347.61
2019-02-05T14:34:14.436Z,96354.98
2019-02-05T14:36:42.017Z,96354.98
2019-02-05T14:39:10.202Z,96356.78
2019-02-05T14:41:37.753Z,96358.44
2019-02-05T14:44:05.384Z,96370.38
2019-02-05T14:46:32.980Z,96374.64
2019-02-05T14:49:00.639Z,96373.93
2019-02-05T14:51:28.514Z,96375.44
2019-02-05T14:53:56.326Z,96376.70
2019-02-05T14:56:24.227Z,96373.03
2019-02-05T14:58:52.150Z,96377.36
2019-02-05T15:01:20.116Z,96382.51
2019-02-05T15:03:48.022Z,96383.06
2019-02-05T15:06:15.732Z,96383.59
2019-02-05T15:08:43.328Z,96385.16
2019-02-05T15:11:11.208Z,96379.69
2019-02-05T15:13:38.848Z,96371.98
2019-02-05T15:16:06.654Z,96377.47
2019-02-05T15:18:34.580Z,96377.02
2019-02-05T15:21:02.529Z,96380.74
2019-02-05T15:23:30.527Z,96378.20
2019-02-05T15:25:58.507Z,96384.42
2019-02-05T15:28:26.406Z,96387.08
2019-02-05T15:30:54.236Z,96379.38
2019-02-05T15:33:38.603Z,96379.38
2019-02-05T15:36:49.080Z,96381.28
2019-02-05T15:39:16.918Z,96388.36
2019-02-05T15:41:44.778Z,96383.98
2019-02-05T15:44:12.877Z,96384.42
2019-02-05T15:46:40.821Z,96394.55
2019-02-05T15:49:08.799Z,96381.74
2019-02-05T15:51:36.824Z,96379.61
2019-02-05T15:54:04.928Z,96380.57
2019-02-05T15:56:32.739Z,96382.73
2019-02-05T15:59:00.734Z,96386.89
2019-02-05T16:01:28.830Z,96388.40
2019-02-05T16:03:56.773Z,96387.84
2019-02-05T16:06:24.768Z,96396.30
2019-02-05T16:08:52.680Z,96360.23
2019-02-05T16:11:20.557Z,96388.25
2019-02-05T16:13:48.657Z,96401.36
2019-02-05T16:16:16.749Z,96404.16
2019-02-05T16:18:45.528Z,96404.16
2019-02-05T16:21:13.502Z,96411.13
2019-02-05T16:23:41.475Z,96407.73
2019-02-05T16:26:09.440Z,96412.98
2019-02-05T16:28:37.420Z,96415.17
2019-02-05T16:31:05.267Z,96415.70
2019-02-05T16:33:33.254Z,96415.70
2019-02-05T16:36:01.456Z,96423.63
2019-02-05T16:38:29.345Z,96431.16
2019-02-05T16:40:57.307Z,96430.02
2019-02-05T16:43:27.901Z,96436.42
2019-02-05T16:45:54.899Z,96441.13
2019-02-05T16:48:22.757Z,96437.34
2019-02-05T16:50:50.760Z,96441.40
2019-02-05T16:53:18.779Z,96444.00
2019-02-05T16:55:46.912Z,96445.23
2019-02-05T16:58:14.649Z,96459.55
2019-02-05T17:00:42.556Z,96449.44
2019-02-05T17:03:10.489Z,96454.89
2019-02-05T17:05:39.303Z,96454.95
2019-02-05T17:08:07.494Z,96455.20
2019-02-05T17:10:35.573Z,96464.22
2019-02-05T17:13:03.674Z,96467.97
2019-02-05T17:15:31.728Z,96467.22
2019-02-05T17:17:59.711Z,96466.75
2019-02-05T17:20:28.943Z,96466.38
2019-02-05T17:22:56.917Z,96468.19
2019-02-05T17:25:25.914Z,96468.45
2019-02-05T17:27:55.219Z,96472.47
2019-02-05T17:30:26.782Z,96470.63
2019-02-05T17:32:54.839Z,96470.73
2019-02-05T17:35:24.290Z,96471.19
2019-02-05T17:37:52.327Z,96473.02
2019-02-05T17:40:24.136Z,96476.33
2019-02-05T17:42:53.309Z,96476.33
2019-02-05T17:45:24.632Z,96477.25
2019-02-05T17:47:53.770Z,96488.50
2019-02-05T17:50:21.780Z,96477.87
2019-02-05T17:52:49.792Z,96477.87
2019-02-05T17:55:19.560Z,96486.73
2019-02-05T17:57:48.713Z,96487.56
2019-02-05T18:00:31.267Z,96490.33
2019-02-05T18:02:59.246Z,96485.53
2019-02-05T18:05:27.269Z,96491.53
2019-02-05T18:07:55.362Z,96486.03
2019-02-05T18:10:25.383Z,96488.84
2019-02-05T18:12:53.769Z,96496.25
2019-02-05T18:15:27.703Z,96500.70
2019-02-05T18:17:55.768Z,96498.87
2019-02-05T18:20:23.627Z,96493.33
2019-02-05T18:22:52.007Z,96501.52
2019-02-05T18:25:20.217Z,96506.70
2019-02-05T18:27:51.530Z,96511.48
2019-02-05T18:30:22.725Z,96520.34
2019-02-05T18:32:50.852Z,96512.69
2019-02-05T18:35:18.811Z,96522.95
2019-02-05T18:37:47.380Z,96517.48
2019-02-05T18:40:16.817Z,96523.49
2019-02-05T18:42:45.162Z,96523.47
2019-02-05T18:45:14.563Z,96515.89
2019-02-05T18:47:42.700Z,96525.80
2019-02-05T18:50:14.973Z,96518.59
2019-02-05T18:52:44.731Z,96533.09
2019-02-05T18:55:12.691Z,96529.74
2019-02-05T18:57:41.228Z,96533.13
2019-02-05T19:00:19.545Z,96530.93
2019-02-05T19:02:47.593Z,96530.16
2019-02-05T19:05:16.224Z,96540.95
2019-02-05T19:07:44.807Z,96532.91
2019-02-05T19:10:13.487Z,96532.91
2019-02-05T19:12:41.604Z,96533.30
2019-02-05T19:15:15.843Z,96523.53
2019-02-05T19:17:44.013Z,96533.82
2019-02-05T19:20:12.162Z,96529.44
2019-02-05T19:22:49.542Z,96532.33
2019-02-05T19:25:42.572Z,96540.03
2019-02-05T19:28:15.241Z,96534.09
2019-02-05T19:30:44.065Z,96534.09
2019-02-05T19:33:13.766Z,96540.06
2019-02-05T19:35:42.920Z,96541.63
2019-02-05T19:38:13.488Z,96536.36
2019-02-05T19:40:41.618Z,96536.36
2019-02-05T19:43:09.636Z,96543.63
2019-02-05T19:45:53.245Z,96543.06
2019-02-05T19:48:34.973Z,96548.22
2019-02-05T19:51:03.347Z,96548.20
2019-02-05T19:53:32.008Z,96550.83
2019-02-05T19:56:00.132Z,96553.40
2019-02-05T19:58:28.310Z,96555.98
2019-02-05T20:00:56.433Z,96554.40
2019-02-05T20:03:25.859Z,96560.84
2019-02-05T20:05:54.313Z,96556.00
2019-02-05T20:08:23.477Z,96550.41
2019-02-05T20:10:51.677Z,96556.47
2019-02-05T20:13:19.962Z,96559.09
2019-02-05T20:15:51.191Z,96552.19
2019-02-05T20:18:25.220Z,96552.19
2019-02-05T20:20:53.717Z,96565.50
2019-02-05T20:23:23.119Z,96570.25
2019-02-05T20:25:51.076Z,96567.72
2019-02-05T20:28:19.447Z,96571.97
2019-02-05T20:30:47.347Z,96571.03
2019-02-05T20:33:16.623Z,96574.87
2019-02-05T20:35:46.466Z,96580.44
2019-02-05T20:38:14.527Z,96573.66
2019-02-05T20:40:42.547Z,96576.83
2019-02-05T20:43:10.590Z,96583.12
2019-02-05T20:45:40.976Z,96583.94
2019-02-05T20:48:09.094Z,96585.64
2019-02-05T20:50:37.165Z,96588.64
2019-02-05T20:53:13.451Z,96586.58
2019-02-05T20:55:35.033Z,96584.47
2019-02-05T20:58:03.249Z,96583.14
2019-02-05T21:00:35.943Z,96590.42
2019-02-05T21:03:05.524Z,96590.42
2019-02-05T21:05:34.439Z,96584.48
2019-02-05T21:08:03.681Z,96582.78
2019-02-05T21:10:31.675Z,96587.50
2019-02-05T21:12:59.703Z,96592.24
2019-02-05T21:15:28.298Z,96601.22
2019-02-05T21:17:56.380Z,96601.22
2019-02-05T21:20:29.232Z,96597.34
2019-02-05T21:22:56.679Z,96590.50
2019-02-05T21:25:24.267Z,96588.38
2019-02-05T21:27:52.170Z,96590.45
2019-02-05T21:30:20.328Z,96592.17
2019-02-05T21:32:48.349Z,96594.50
2019-02-05T21:35:16.545Z,96595.31
2019-02-05T21:37:44.933Z,96592.69
2019-02-05T21:40:18.600Z,96592.69
2019-02-05T21:42:46.501Z,96593.97
2019-02-05T21:45:16.921Z,96591.34
2019-02-05T21:47:44.867Z,96593.11
2019-02-05T21:50:15.218Z,96590.95
2019-02-05T21:52:43.122Z,96590.95
2019-02-05T21:55:11.937Z,96589.75
2019-02-05T21:57:39.809Z,96589.75
2019-02-05T22:00:16.724Z,96588.04
2019-02-05T22:02:44.690Z,96588.97
2019-02-05T22:05:12.648Z,96612.01
2019-02-05T22:07:40.602Z,96591.52
2019-02-05T22:10:08.745Z,96588.53
2019-02-05T22:12:36.762Z,96588.53
2019-02-05T22:15:06.376Z,96568.58
2019-02-05T22:17:33.806Z,96579.63
2019-02-05T22:20:01.262Z,96594.55
2019-02-05T22:22:28.697Z,96590.31
2019-02-05T22:24:56.137Z,96594.58
2019-02-05T22:27:23.537Z,96595.42
2019-02-05T22:29:50.959Z,96580.83
2019-02-05T22:32:18.358Z,96588.10
2019-02-05T22:34:45.813Z,96588.10
2019-02-05T22:37:13.165Z,96595.61
2019-02-05T22:39:40.638Z,96595.61
2019-02-05T22:42:08.037Z,96595.43
2019-02-05T22:44:35.517Z,96598.52
2019-02-05T22:47:03.122Z,96606.66
2019-02-05T22:49:30.497Z,96601.88
2019-02-05T22:51:57.898Z,96590.26
2019-02-05T22:54:25.278Z,96604.09
2019-02-05T22:56:52.637Z,96596.78
2019-02-05T22:59:20.121Z,96599.29
2019-02-05T23:01:56.167Z,96591.63
2019-02-05T23:04:51.097Z,96598.03
2019-02-05T23:07:20.726Z,96593.67
2019-02-05T23:10:09.583Z,96598.42
2019-02-05T23:13:01.942Z,96608.27
2019-02-05T23:15:29.998Z,96594.63
2019-02-05T23:17:57.419Z,96593.37
2019-02-05T23:20:24.797Z,96592.13
2019-02-05T23:22:52.886Z,96590.03
2019-02-05T23:25:20.326Z,96590.39
2019-02-05T23:27:48.000Z,96596.84
2019-02-05T23:30:18.337Z,96596.84
2019-02-05T23:32:45.818Z,96589.59
2019-02-05T23:35:13.937Z,96594.66
2019-02-05T23:37:41.398Z,96593.00
2019-02-05T23:40:09.156Z,96593.00
2019-02-05T23:42:36.641Z,96597.66
2019-02-05T23:45:05.752Z,96592.56
2019-02-05T23:47:33.396Z,96592.56
2019-02-05T23:50:00.757Z,96596.88
2019-02-05T23:52:28.108Z,96590.47
2019-02-05T23:54:55.533Z,96597.70
2019-02-05T23:57:22.917Z,96591.73
2019-02-05T23:59:50.277Z,96591.73
